sensor_id;sensor_type;location;lat;lon;timestamp;temperature;humidity
19192;DHT22;9728;48.194;16.346;2022-12-07T00:01:15;13.10;50.30
19192;DHT22;9728;48.194;16.346;2022-12-07T00:06:19;13.10;50.50
19192;DHT22;9728;48.194;16.346;2022-12-07T00:11:24;13.10;50.60
19192;DHT22;9728;48.194;16.346;2022-12-07T00:16:29;13.00;50.60
19192;DHT22;9728;48.194;16.346;2022-12-07T00:21:34;13.10;50.50
19192;DHT22;9728;48.194;16.346;2022-12-07T00:26:41;13.00;50.50
19192;DHT22;9728;48.194;16.346;2022-12-07T00:31:46;13.10;50.50
19192;DHT22;9728;48.194;16.346;2022-12-07T00:36:50;13.10;50.60
19192;DHT22;9728;48.194;16.346;2022-12-07T00:41:54;13.10;50.60
19192;DHT22;9728;48.194;16.346;2022-12-07T00:46:57;13.10;50.50
19192;DHT22;9728;48.194;16.346;2022-12-07T00:52:01;13.10;50.50
19192;DHT22;9728;48.194;16.346;2022-12-07T00:57:05;13.00;50.50
19192;DHT22;9728;48.194;16.346;2022-12-07T01:02:09;13.00;50.70
19192;DHT22;9728;48.194;16.346;2022-12-07T01:07:12;13.00;50.70
19192;DHT22;9728;48.194;16.346;2022-12-07T01:12:17;12.90;50.70
19192;DHT22;9728;48.194;16.346;2022-12-07T01:17:20;13.00;50.80
19192;DHT22;9728;48.194;16.346;2022-12-07T01:22:23;13.00;50.70
19192;DHT22;9728;48.194;16.346;2022-12-07T01:27:28;13.00;51.30
19192;DHT22;9728;48.194;16.346;2022-12-07T01:32:31;13.00;50.60
19192;DHT22;9728;48.194;16.346;2022-12-07T01:37:35;12.90;50.70
19192;DHT22;9728;48.194;16.346;2022-12-07T01:42:40;12.80;50.70
19192;DHT22;9728;48.194;16.346;2022-12-07T01:47:45;12.70;50.90
19192;DHT22;9728;48.194;16.346;2022-12-07T01:52:50;12.70;51.00
19192;DHT22;9728;48.194;16.346;2022-12-07T01:57:56;12.70;51.10
19192;DHT22;9728;48.194;16.346;2022-12-07T02:03:04;12.70;51.10
19192;DHT22;9728;48.194;16.346;2022-12-07T02:08:09;12.80;51.20
19192;DHT22;9728;48.194;16.346;2022-12-07T02:13:17;12.80;51.10
19192;DHT22;9728;48.194;16.346;2022-12-07T02:18:28;12.80;51.10
19192;DHT22;9728;48.194;16.346;2022-12-07T02:29:27;12.90;51.10
19192;DHT22;9728;48.194;16.346;2022-12-07T02:34:39;12.90;51.00
19192;DHT22;9728;48.194;16.346;2022-12-07T02:39:47;12.90;51.00
19192;DHT22;9728;48.194;16.346;2022-12-07T02:44:54;12.90;50.90
19192;DHT22;9728;48.194;16.346;2022-12-07T02:49:58;12.90;51.00
19192;DHT22;9728;48.194;16.346;2022-12-07T02:55:02;12.90;51.00
19192;DHT22;9728;48.194;16.346;2022-12-07T03:00:09;13.00;51.00
19192;DHT22;9728;48.194;16.346;2022-12-07T03:05:22;12.90;50.90
19192;DHT22;9728;48.194;16.346;2022-12-07T03:10:38;12.90;50.90
19192;DHT22;9728;48.194;16.346;2022-12-07T03:15:49;12.90;50.90
19192;DHT22;9728;48.194;16.346;2022-12-07T03:20:57;12.90;51.00
19192;DHT22;9728;48.194;16.346;2022-12-07T03:26:04;12.80;51.00
19192;DHT22;9728;48.194;16.346;2022-12-07T03:31:14;12.80;51.30
19192;DHT22;9728;48.194;16.346;2022-12-07T03:36:24;12.80;51.20
19192;DHT22;9728;48.194;16.346;2022-12-07T03:41:31;12.90;51.30
19192;DHT22;9728;48.194;16.346;2022-12-07T03:46:41;12.90;51.30
19192;DHT22;9728;48.194;16.346;2022-12-07T03:51:51;12.90;51.20
19192;DHT22;9728;48.194;16.346;2022-12-07T03:56:57;13.00;51.20
19192;DHT22;9728;48.194;16.346;2022-12-07T04:02:05;13.00;51.10
19192;DHT22;9728;48.194;16.346;2022-12-07T04:07:09;13.10;51.10
19192;DHT22;9728;48.194;16.346;2022-12-07T04:12:12;13.10;51.10
19192;DHT22;9728;48.194;16.346;2022-12-07T04:17:17;13.10;51.00
19192;DHT22;9728;48.194;16.346;2022-12-07T04:22:20;13.20;51.10
19192;DHT22;9728;48.194;16.346;2022-12-07T04:27:23;13.20;51.00
19192;DHT22;9728;48.194;16.346;2022-12-07T04:32:28;13.20;50.90
19192;DHT22;9728;48.194;16.346;2022-12-07T04:37:31;13.30;50.90
19192;DHT22;9728;48.194;16.346;2022-12-07T04:42:35;13.30;50.80
19192;DHT22;9728;48.194;16.346;2022-12-07T04:47:40;13.30;50.80
19192;DHT22;9728;48.194;16.346;2022-12-07T04:52:43;13.30;50.70
19192;DHT22;9728;48.194;16.346;2022-12-07T04:57:47;13.30;50.70
19192;DHT22;9728;48.194;16.346;2022-12-07T05:02:51;13.30;50.70
19192;DHT22;9728;48.194;16.346;2022-12-07T05:07:56;13.30;50.70
19192;DHT22;9728;48.194;16.346;2022-12-07T05:12:59;13.30;50.70
19192;DHT22;9728;48.194;16.346;2022-12-07T05:18:04;13.30;50.70
19192;DHT22;9728;48.194;16.346;2022-12-07T05:23:08;13.40;50.70
19192;DHT22;9728;48.194;16.346;2022-12-07T05:28:11;13.40;50.70
19192;DHT22;9728;48.194;16.346;2022-12-07T05:33:17;13.40;50.60
19192;DHT22;9728;48.194;16.346;2022-12-07T05:38:20;13.40;51.20
19192;DHT22;9728;48.194;16.346;2022-12-07T05:43:24;13.40;50.60
19192;DHT22;9728;48.194;16.346;2022-12-07T05:48:28;13.40;50.40
19192;DHT22;9728;48.194;16.346;2022-12-07T05:53:32;13.40;50.40
19192;DHT22;9728;48.194;16.346;2022-12-07T05:58:35;13.40;50.40
19192;DHT22;9728;48.194;16.346;2022-12-07T06:03:57;13.40;50.40
19192;DHT22;9728;48.194;16.346;2022-12-07T06:09:00;13.40;50.30
19192;DHT22;9728;48.194;16.346;2022-12-07T06:14:04;13.40;50.40
19192;DHT22;9728;48.194;16.346;2022-12-07T06:19:08;13.40;51.00
19192;DHT22;9728;48.194;16.346;2022-12-07T06:24:13;13.40;50.70
19192;DHT22;9728;48.194;16.346;2022-12-07T06:29:17;13.40;50.60
19192;DHT22;9728;48.194;16.346;2022-12-07T06:34:23;13.50;50.60
19192;DHT22;9728;48.194;16.346;2022-12-07T06:39:28;13.50;50.40
19192;DHT22;9728;48.194;16.346;2022-12-07T06:44:31;13.50;50.30
19192;DHT22;9728;48.194;16.346;2022-12-07T06:49:36;13.50;50.20
19192;DHT22;9728;48.194;16.346;2022-12-07T06:54:39;13.50;50.10
19192;DHT22;9728;48.194;16.346;2022-12-07T06:59:43;13.50;50.20
19192;DHT22;9728;48.194;16.346;2022-12-07T07:04:48;13.50;50.10
19192;DHT22;9728;48.194;16.346;2022-12-07T07:09:51;13.50;50.10
19192;DHT22;9728;48.194;16.346;2022-12-07T07:14:55;13.60;50.20
19192;DHT22;9728;48.194;16.346;2022-12-07T07:19:59;13.50;50.10
19192;DHT22;9728;48.194;16.346;2022-12-07T07:25:04;13.50;50.00
19192;DHT22;9728;48.194;16.346;2022-12-07T07:30:08;13.60;50.10
19192;DHT22;9728;48.194;16.346;2022-12-07T07:35:13;13.60;50.00
19192;DHT22;9728;48.194;16.346;2022-12-07T07:40:17;13.60;50.00
19192;DHT22;9728;48.194;16.346;2022-12-07T07:45:22;13.60;50.10
19192;DHT22;9728;48.194;16.346;2022-12-07T07:50:27;13.60;50.00
19192;DHT22;9728;48.194;16.346;2022-12-07T07:55:30;13.60;49.90
19192;DHT22;9728;48.194;16.346;2022-12-07T08:00:34;13.70;50.00
19192;DHT22;9728;48.194;16.346;2022-12-07T08:05:39;13.60;49.90
19192;DHT22;9728;48.194;16.346;2022-12-07T08:10:42;13.60;49.70
19192;DHT22;9728;48.194;16.346;2022-12-07T08:15:47;13.70;49.80
19192;DHT22;9728;48.194;16.346;2022-12-07T08:20:58;13.70;49.70
19192;DHT22;9728;48.194;16.346;2022-12-07T08:26:02;13.70;49.50
19192;DHT22;9728;48.194;16.346;2022-12-07T08:31:07;13.70;49.80
19192;DHT22;9728;48.194;16.346;2022-12-07T08:36:13;13.70;49.80
19192;DHT22;9728;48.194;16.346;2022-12-07T08:41:16;13.70;49.70
19192;DHT22;9728;48.194;16.346;2022-12-07T08:46:23;13.70;49.80
19192;DHT22;9728;48.194;16.346;2022-12-07T08:51:30;13.70;49.70
19192;DHT22;9728;48.194;16.346;2022-12-07T08:56:34;13.70;49.60
19192;DHT22;9728;48.194;16.346;2022-12-07T09:01:38;13.70;49.60
19192;DHT22;9728;48.194;16.346;2022-12-07T09:06:42;13.70;49.50
19192;DHT22;9728;48.194;16.346;2022-12-07T09:11:46;13.70;49.30
19192;DHT22;9728;48.194;16.346;2022-12-07T09:16:50;13.70;49.20
19192;DHT22;9728;48.194;16.346;2022-12-07T09:21:54;13.70;49.10
19192;DHT22;9728;48.194;16.346;2022-12-07T09:26:58;13.80;49.00
19192;DHT22;9728;48.194;16.346;2022-12-07T09:32:01;13.80;49.00
19192;DHT22;9728;48.194;16.346;2022-12-07T09:37:13;13.70;49.00
19192;DHT22;9728;48.194;16.346;2022-12-07T09:42:27;13.70;48.70
19192;DHT22;9728;48.194;16.346;2022-12-07T09:47:33;13.70;48.40
19192;DHT22;9728;48.194;16.346;2022-12-07T09:52:38;13.70;48.70
19192;DHT22;9728;48.194;16.346;2022-12-07T09:57:43;13.70;48.70
19192;DHT22;9728;48.194;16.346;2022-12-07T10:02:48;13.70;48.70
19192;DHT22;9728;48.194;16.346;2022-12-07T10:07:54;13.70;48.70
19192;DHT22;9728;48.194;16.346;2022-12-07T10:13:00;13.70;48.70
19192;DHT22;9728;48.194;16.346;2022-12-07T10:18:03;13.70;48.60
19192;DHT22;9728;48.194;16.346;2022-12-07T10:23:15;13.70;48.50
19192;DHT22;9728;48.194;16.346;2022-12-07T10:28:19;13.70;47.90
19192;DHT22;9728;48.194;16.346;2022-12-07T10:33:31;13.70;48.40
19192;DHT22;9728;48.194;16.346;2022-12-07T10:38:44;13.70;48.50
19192;DHT22;9728;48.194;16.346;2022-12-07T10:43:55;13.70;48.10
19192;DHT22;9728;48.194;16.346;2022-12-07T10:49:08;13.70;48.40
19192;DHT22;9728;48.194;16.346;2022-12-07T10:54:23;13.80;47.80
19192;DHT22;9728;48.194;16.346;2022-12-07T10:59:47;13.70;47.50
19192;DHT22;9728;48.194;16.346;2022-12-07T11:05:04;13.70;47.30
19192;DHT22;9728;48.194;16.346;2022-12-07T11:10:16;13.60;47.50
19192;DHT22;9728;48.194;16.346;2022-12-07T11:15:26;13.60;47.80
19192;DHT22;9728;48.194;16.346;2022-12-07T11:20:43;13.50;47.80
19192;DHT22;9728;48.194;16.346;2022-12-07T11:25:54;13.60;47.60
19192;DHT22;9728;48.194;16.346;2022-12-07T11:31:07;13.60;47.80
19192;DHT22;9728;48.194;16.346;2022-12-07T11:36:30;13.60;47.80
19192;DHT22;9728;48.194;16.346;2022-12-07T11:41:38;13.70;47.30
19192;DHT22;9728;48.194;16.346;2022-12-07T11:46:48;13.70;47.40
19192;DHT22;9728;48.194;16.346;2022-12-07T11:51:57;13.70;47.10
19192;DHT22;9728;48.194;16.346;2022-12-07T11:57:07;13.70;47.20
19192;DHT22;9728;48.194;16.346;2022-12-07T12:02:22;13.70;47.00
19192;DHT22;9728;48.194;16.346;2022-12-07T12:07:28;13.80;47.00
19192;DHT22;9728;48.194;16.346;2022-12-07T12:13:22;13.70;47.10
19192;DHT22;9728;48.194;16.346;2022-12-07T12:19:04;13.70;46.30
19192;DHT22;9728;48.194;16.346;2022-12-07T12:24:17;13.70;46.60
19192;DHT22;9728;48.194;16.346;2022-12-07T12:29:27;13.70;47.00
19192;DHT22;9728;48.194;16.346;2022-12-07T12:34:40;13.70;46.70
19192;DHT22;9728;48.194;16.346;2022-12-07T12:45:34;13.70;46.20
19192;DHT22;9728;48.194;16.346;2022-12-07T12:50:38;13.80;46.90
19192;DHT22;9728;48.194;16.346;2022-12-07T12:56:02;13.70;46.90
19192;DHT22;9728;48.194;16.346;2022-12-07T13:01:42;13.80;46.00
19192;DHT22;9728;48.194;16.346;2022-12-07T13:06:47;13.80;45.90
19192;DHT22;9728;48.194;16.346;2022-12-07T13:12:00;13.70;46.80
19192;DHT22;9728;48.194;16.346;2022-12-07T13:17:08;13.70;46.30
19192;DHT22;9728;48.194;16.346;2022-12-07T13:22:44;13.70;47.10
19192;DHT22;9728;48.194;16.346;2022-12-07T13:27:55;13.60;46.00
19192;DHT22;9728;48.194;16.346;2022-12-07T13:33:03;13.70;46.50
19192;DHT22;9728;48.194;16.346;2022-12-07T13:38:20;13.70;46.50
19192;DHT22;9728;48.194;16.346;2022-12-07T13:43:25;13.70;46.00
19192;DHT22;9728;48.194;16.346;2022-12-07T13:48:33;13.70;46.60
19192;DHT22;9728;48.194;16.346;2022-12-07T13:53:46;13.70;46.20
19192;DHT22;9728;48.194;16.346;2022-12-07T13:58:50;13.80;45.90
19192;DHT22;9728;48.194;16.346;2022-12-07T14:03:55;13.80;46.50
19192;DHT22;9728;48.194;16.346;2022-12-07T14:09:09;13.80;46.30
19192;DHT22;9728;48.194;16.346;2022-12-07T14:14:20;13.80;45.80
19192;DHT22;9728;48.194;16.346;2022-12-07T14:19:49;13.80;46.20
19192;DHT22;9728;48.194;16.346;2022-12-07T14:25:19;13.80;45.60
19192;DHT22;9728;48.194;16.346;2022-12-07T14:30:25;13.80;45.60
19192;DHT22;9728;48.194;16.346;2022-12-07T14:35:32;13.80;46.20
19192;DHT22;9728;48.194;16.346;2022-12-07T14:40:35;13.80;46.10
19192;DHT22;9728;48.194;16.346;2022-12-07T14:45:39;13.90;46.30
19192;DHT22;9728;48.194;16.346;2022-12-07T14:50:49;13.80;46.20
19192;DHT22;9728;48.194;16.346;2022-12-07T14:56:13;13.80;46.00
19192;DHT22;9728;48.194;16.346;2022-12-07T15:01:17;13.80;46.20
19192;DHT22;9728;48.194;16.346;2022-12-07T15:06:22;13.80;46.20
19192;DHT22;9728;48.194;16.346;2022-12-07T15:11:25;13.70;46.00
19192;DHT22;9728;48.194;16.346;2022-12-07T15:16:29;13.70;46.20
19192;DHT22;9728;48.194;16.346;2022-12-07T15:21:54;13.60;46.10
19192;DHT22;9728;48.194;16.346;2022-12-07T15:26:58;13.60;46.20
19192;DHT22;9728;48.194;16.346;2022-12-07T15:32:01;13.60;46.40
19192;DHT22;9728;48.194;16.346;2022-12-07T15:37:07;13.50;46.40
19192;DHT22;9728;48.194;16.346;2022-12-07T15:42:10;13.50;46.30
19192;DHT22;9728;48.194;16.346;2022-12-07T15:47:13;13.50;46.40
19192;DHT22;9728;48.194;16.346;2022-12-07T15:52:18;13.50;46.50
19192;DHT22;9728;48.194;16.346;2022-12-07T15:57:22;13.50;46.40
19192;DHT22;9728;48.194;16.346;2022-12-07T16:02:26;13.50;46.50
19192;DHT22;9728;48.194;16.346;2022-12-07T16:07:31;13.40;46.50
19192;DHT22;9728;48.194;16.346;2022-12-07T16:12:34;13.40;46.50
19192;DHT22;9728;48.194;16.346;2022-12-07T16:17:38;13.40;46.50
19192;DHT22;9728;48.194;16.346;2022-12-07T16:22:43;13.40;46.50
19192;DHT22;9728;48.194;16.346;2022-12-07T16:27:46;13.40;47.60
19192;DHT22;9728;48.194;16.346;2022-12-07T16:32:49;13.50;47.10
19192;DHT22;9728;48.194;16.346;2022-12-07T16:37:54;13.50;46.70
19192;DHT22;9728;48.194;16.346;2022-12-07T16:42:58;13.60;46.50
19192;DHT22;9728;48.194;16.346;2022-12-07T16:48:05;13.50;46.40
19192;DHT22;9728;48.194;16.346;2022-12-07T16:53:10;13.50;46.30
19192;DHT22;9728;48.194;16.346;2022-12-07T16:58:17;13.50;46.20
19192;DHT22;9728;48.194;16.346;2022-12-07T17:03:20;13.50;46.00
19192;DHT22;9728;48.194;16.346;2022-12-07T17:08:25;13.50;46.10
19192;DHT22;9728;48.194;16.346;2022-12-07T17:13:29;13.50;46.00
19192;DHT22;9728;48.194;16.346;2022-12-07T17:18:49;13.40;46.10
19192;DHT22;9728;48.194;16.346;2022-12-07T17:23:54;13.40;46.10
19192;DHT22;9728;48.194;16.346;2022-12-07T17:28:58;13.40;46.50
19192;DHT22;9728;48.194;16.346;2022-12-07T17:34:02;13.30;46.50
19192;DHT22;9728;48.194;16.346;2022-12-07T17:39:08;13.30;46.50
19192;DHT22;9728;48.194;16.346;2022-12-07T17:44:15;13.30;46.30
19192;DHT22;9728;48.194;16.346;2022-12-07T17:49:27;13.30;46.30
19192;DHT22;9728;48.194;16.346;2022-12-07T17:54:34;13.30;46.30
19192;DHT22;9728;48.194;16.346;2022-12-07T17:59:38;13.30;46.20
19192;DHT22;9728;48.194;16.346;2022-12-07T18:04:42;13.30;46.20
19192;DHT22;9728;48.194;16.346;2022-12-07T18:09:49;13.30;46.20
19192;DHT22;9728;48.194;16.346;2022-12-07T18:14:54;13.20;46.10
19192;DHT22;9728;48.194;16.346;2022-12-07T18:19:58;13.20;46.10
19192;DHT22;9728;48.194;16.346;2022-12-07T18:25:04;13.20;46.10
19192;DHT22;9728;48.194;16.346;2022-12-07T18:30:09;13.20;46.00
19192;DHT22;9728;48.194;16.346;2022-12-07T18:35:13;13.20;46.10
19192;DHT22;9728;48.194;16.346;2022-12-07T18:40:19;13.20;46.10
19192;DHT22;9728;48.194;16.346;2022-12-07T18:45:23;13.10;45.90
19192;DHT22;9728;48.194;16.346;2022-12-07T18:50:31;13.10;46.10
19192;DHT22;9728;48.194;16.346;2022-12-07T18:55:39;13.10;46.10
19192;DHT22;9728;48.194;16.346;2022-12-07T19:00:43;13.10;46.00
19192;DHT22;9728;48.194;16.346;2022-12-07T19:05:48;13.10;46.10
19192;DHT22;9728;48.194;16.346;2022-12-07T19:10:54;13.10;46.00
19192;DHT22;9728;48.194;16.346;2022-12-07T19:16:25;13.10;45.90
19192;DHT22;9728;48.194;16.346;2022-12-07T19:21:29;13.10;46.00
19192;DHT22;9728;48.194;16.346;2022-12-07T19:26:36;13.10;47.30
19192;DHT22;9728;48.194;16.346;2022-12-07T19:31:41;13.20;47.10
19192;DHT22;9728;48.194;16.346;2022-12-07T19:36:46;13.20;46.70
19192;DHT22;9728;48.194;16.346;2022-12-07T19:41:54;13.30;46.50
19192;DHT22;9728;48.194;16.346;2022-12-07T19:47:02;13.30;46.10
19192;DHT22;9728;48.194;16.346;2022-12-07T19:52:08;13.40;46.10
19192;DHT22;9728;48.194;16.346;2022-12-07T19:57:18;13.30;45.90
19192;DHT22;9728;48.194;16.346;2022-12-07T20:02:25;13.40;45.70
19192;DHT22;9728;48.194;16.346;2022-12-07T20:07:30;13.30;45.80
19192;DHT22;9728;48.194;16.346;2022-12-07T20:12:41;13.40;45.80
19192;DHT22;9728;48.194;16.346;2022-12-07T20:18:03;13.30;45.60
19192;DHT22;9728;48.194;16.346;2022-12-07T20:23:08;13.30;45.60
19192;DHT22;9728;48.194;16.346;2022-12-07T20:28:14;13.30;45.70
19192;DHT22;9728;48.194;16.346;2022-12-07T20:33:19;13.30;45.70
19192;DHT22;9728;48.194;16.346;2022-12-07T20:38:24;13.30;45.70
19192;DHT22;9728;48.194;16.346;2022-12-07T20:43:32;13.30;45.60
19192;DHT22;9728;48.194;16.346;2022-12-07T20:48:38;13.30;45.50
19192;DHT22;9728;48.194;16.346;2022-12-07T20:53:42;13.30;45.60
19192;DHT22;9728;48.194;16.346;2022-12-07T20:58:47;13.30;45.50
19192;DHT22;9728;48.194;16.346;2022-12-07T21:03:53;13.30;45.40
19192;DHT22;9728;48.194;16.346;2022-12-07T21:08:59;13.30;45.40
19192;DHT22;9728;48.194;16.346;2022-12-07T21:14:05;13.30;45.40
19192;DHT22;9728;48.194;16.346;2022-12-07T21:19:09;13.30;45.30
19192;DHT22;9728;48.194;16.346;2022-12-07T21:24:12;13.40;46.30
19192;DHT22;9728;48.194;16.346;2022-12-07T21:29:17;13.40;46.20
19192;DHT22;9728;48.194;16.346;2022-12-07T21:34:41;13.40;45.70
19192;DHT22;9728;48.194;16.346;2022-12-07T21:39:44;13.50;45.60
19192;DHT22;9728;48.194;16.346;2022-12-07T21:44:49;13.50;45.40
19192;DHT22;9728;48.194;16.346;2022-12-07T21:49:52;13.50;45.20
19192;DHT22;9728;48.194;16.346;2022-12-07T21:54:55;13.40;45.10
19192;DHT22;9728;48.194;16.346;2022-12-07T22:00:00;13.40;45.10
19192;DHT22;9728;48.194;16.346;2022-12-07T22:05:06;13.40;45.00
19192;DHT22;9728;48.194;16.346;2022-12-07T22:10:09;13.30;45.00
19192;DHT22;9728;48.194;16.346;2022-12-07T22:15:14;13.30;45.00
19192;DHT22;9728;48.194;16.346;2022-12-07T22:20:19;13.20;44.90
19192;DHT22;9728;48.194;16.346;2022-12-07T22:25:22;13.20;45.00
19192;DHT22;9728;48.194;16.346;2022-12-07T22:30:28;13.20;45.00
19192;DHT22;9728;48.194;16.346;2022-12-07T22:35:31;13.10;44.90
19192;DHT22;9728;48.194;16.346;2022-12-07T22:40:34;13.10;45.00
19192;DHT22;9728;48.194;16.346;2022-12-07T22:45:41;13.00;44.90
19192;DHT22;9728;48.194;16.346;2022-12-07T22:50:44;13.00;44.90
19192;DHT22;9728;48.194;16.346;2022-12-07T22:55:48;13.00;45.10
19192;DHT22;9728;48.194;16.346;2022-12-07T23:00:53;12.90;45.00
19192;DHT22;9728;48.194;16.346;2022-12-07T23:05:56;12.90;44.90
19192;DHT22;9728;48.194;16.346;2022-12-07T23:10:59;12.90;45.10
19192;DHT22;9728;48.194;16.346;2022-12-07T23:16:11;12.90;45.10
19192;DHT22;9728;48.194;16.346;2022-12-07T23:21:15;12.80;44.60
19192;DHT22;9728;48.194;16.346;2022-12-07T23:26:18;12.90;45.00
19192;DHT22;9728;48.194;16.346;2022-12-07T23:31:23;12.80;45.00
19192;DHT22;9728;48.194;16.346;2022-12-07T23:36:27;12.80;44.90
19192;DHT22;9728;48.194;16.346;2022-12-07T23:41:31;12.80;45.00
19192;DHT22;9728;48.194;16.346;2022-12-07T23:46:35;12.90;45.10
19192;DHT22;9728;48.194;16.346;2022-12-07T23:51:39;12.80;44.90
19192;DHT22;9728;48.194;16.346;2022-12-07T23:56:43;12.80;45.00
